Strona główna
Zdjęcia satelitarne 15-dni prognozyKlimatMeteorologia morska Cyklony Błyskawica LotniskoFAQ Gazetka O
Pogoda : Europa Afryka Ameryka Północna Ameryka Południowa Azja Australia-Oceania Inny
Języki Kontakt

Doncaster Sheffield, Anglia

Robin Hood

Szerokość geograficzna: 53-29N, Długość geograficzna: 001-00W, wysokość: 17 m


METAR: EGCN 241750Z 25006KT 9999 SCT031 BKN037 OVC045 12/07 Q1012
TAF: EGCN 241659Z 2418/2503 25007KT 9999 SCT020

czas: 19:00 (18:00 UTC)

Aktualna obserwacja pogody

Raport powstał 10 minut temu, godzina 17:50 UTC
Wiatr 6 kt od zachodnio-południowy zachód
Temperatura 12°C
Wilgotność 71%
Ciśnienie 1012 hPa
Widzialność 10 km lub więcej
Rozproszone chmury na wysokości 3100 ft
Przerywane chmury na wysokości 3700 ft
Zachmurzenie całkowite na wysokości 4500 ft

Jednostka miary

Prognoza

Raport powstał 1 godzina i 1 minut temu, godzina 16:59 UTC
Prognoza ważna od 24 godzina 18 UTC do 25 godzina 03 UTC
Wiatr 7 kt od zachodnio-południowy zachód
Widzialność 10 km lub więcej
Rozproszone chmury na wysokości 2000 ft
Informacje na tej stronie internetowej podlegają klauzuli o wyłączeniu odpowiedzialności
Pogoda : Europa Afryka Ameryka Północna Ameryka Południowa Azja Australia-Oceania Inny
Zdjęcia satelitarne 15-dni prognozyKlimatMeteorologia morska Cyklony Błyskawica LotniskoFAQ Języki Kontakt Gazetka O